This is the latest recevied weather packets stored in our database for station/object K7D3. If no packets are shown the sender has not sent any weather packets the latest 10 day(s).
| Time | Temp. | Humidity | Pressure | Rain* | Wind** | Luminosity | Snow |
|---|---|---|---|---|---|---|---|
| 1777884991 | 4.44° C | 93% | - | 0 mm | 0 m/s | - | - |
| 1777884508 | 5° C | 92% | - | 0 mm | 0 m/s | - | - |
| 1777884029 | 5.56° C | 91% | - | 0 mm | 0 m/s | - | - |
| 1777883550 | 6.11° C | 92% | - | 0 mm | 0 m/s | - | - |
| 1777883067 | 6.11° C | 91% | - | 0 mm | 0 m/s | - | - |
| 1777882588 | 6.67° C | 91% | - | 0 mm | 0 m/s | - | - |
| 1777882109 | 7.22° C | 92% | - | 0 mm | 0 m/s | - | - |
| 1777881625 | 7.22° C | 92% | - | 0 mm | 0 m/s | - | - |
| 1777881146 | 6.67° C | 93% | - | 0 mm | 0 m/s | - | - |
| 1777880667 | 5.56° C | 93% | - | 0 mm | 0 m/s | - | - |
| 1777878265 | 8.89° C | 81% | - | 0 mm | 0 m/s | - | - |
| 1777877786 | 10° C | 79% | - | 0 mm | 0 m/s | - | - |
| 1777877303 | 10° C | 78% | - | 0 mm | 2.24 m/s, 266° | - | - |
| 1777876824 | 10° C | 79% | - | 0 mm | 0.89 m/s, 214° | - | - |
| 1777876345 | 10° C | 79% | - | 0 mm | 0 m/s | - | - |
| 1777875863 | 10.56° C | 78% | - | 0 mm | 2.24 m/s, 252° | - | - |
| 1777875384 | 10° C | 78% | - | 0 mm | 2.68 m/s, 255° | - | - |
| 1777874905 | 10.56° C | 78% | - | 0 mm | 2.68 m/s, 245° | - | - |
| 1777874423 | 10.56° C | 75% | - | 0 mm | 2.24 m/s, 245° | - | - |
| 1777873944 | 10.56° C | 75% | - | 0 mm | 1.79 m/s, 212° | - | - |
| 1777873465 | 10.56° C | 74% | - | 0 mm | 1.79 m/s, 262° | - | - |
| 1777872983 | 10.56° C | 74% | - | 0 mm | 2.24 m/s, 271° | - | - |
| 1777872504 | 11.11° C | 74% | - | 0 mm | 2.68 m/s, 245° | - | - |
| 1777872025 | 10.56° C | 72% | - | 0 mm | 0 m/s | - | - |
| 1777871542 | 11.11° C | 72% | - | 0 mm | 2.24 m/s, 294° | - | - |
* Rain latest hour (hover to see other rain measurements)
** Current wind speed in m/s (hover to see current wind gust speed)